sensor_id;sensor_type;location;lat;lon;timestamp;P1;durP1;ratioP1;P2;durP2;ratioP2
5819;SDS011;2936;47.348;9.640;2024-02-21T00:00:38;8.25;;;5.85;;
5819;SDS011;2936;47.348;9.640;2024-02-21T00:03:06;6.00;;;5.50;;
5819;SDS011;2936;47.348;9.640;2024-02-21T00:05:36;7.90;;;6.55;;
5819;SDS011;2936;47.348;9.640;2024-02-21T00:08:04;5.45;;;5.00;;
5819;SDS011;2936;47.348;9.640;2024-02-21T00:10:31;6.57;;;5.80;;
5819;SDS011;2936;47.348;9.640;2024-02-21T00:13:00;5.78;;;5.15;;
5819;SDS011;2936;47.348;9.640;2024-02-21T00:15:28;5.68;;;4.53;;
5819;SDS011;2936;47.348;9.640;2024-02-21T00:17:56;5.82;;;4.65;;
5819;SDS011;2936;47.348;9.640;2024-02-21T00:20:23;4.10;;;3.90;;
5819;SDS011;2936;47.348;9.640;2024-02-21T00:22:53;3.88;;;3.58;;
5819;SDS011;2936;47.348;9.640;2024-02-21T00:25:21;3.00;;;2.80;;
5819;SDS011;2936;47.348;9.640;2024-02-21T00:27:49;3.55;;;2.80;;
5819;SDS011;2936;47.348;9.640;2024-02-21T00:30:16;2.20;;;2.10;;
5819;SDS011;2936;47.348;9.640;2024-02-21T00:32:44;2.45;;;2.35;;
5819;SDS011;2936;47.348;9.640;2024-02-21T00:35:12;2.72;;;2.63;;
5819;SDS011;2936;47.348;9.640;2024-02-21T00:37:40;2.10;;;2.00;;
5819;SDS011;2936;47.348;9.640;2024-02-21T00:40:10;2.28;;;2.08;;
5819;SDS011;2936;47.348;9.640;2024-02-21T00:42:37;2.28;;;2.17;;
5819;SDS011;2936;47.348;9.640;2024-02-21T00:45:06;2.90;;;2.75;;
5819;SDS011;2936;47.348;9.640;2024-02-21T00:47:33;13.48;;;3.22;;
5819;SDS011;2936;47.348;9.640;2024-02-21T00:50:01;2.80;;;2.70;;
5819;SDS011;2936;47.348;9.640;2024-02-21T00:52:28;2.92;;;2.80;;
5819;SDS011;2936;47.348;9.640;2024-02-21T00:54:56;2.22;;;2.13;;
5819;SDS011;2936;47.348;9.640;2024-02-21T00:57:25;2.35;;;2.25;;
5819;SDS011;2936;47.348;9.640;2024-02-21T00:59:53;15.65;;;2.42;;
5819;SDS011;2936;47.348;9.640;2024-02-21T01:02:20;2.50;;;2.40;;
5819;SDS011;2936;47.348;9.640;2024-02-21T01:04:48;2.30;;;2.20;;
5819;SDS011;2936;47.348;9.640;2024-02-21T01:07:15;2.50;;;2.40;;
5819;SDS011;2936;47.348;9.640;2024-02-21T01:09:43;2.30;;;2.20;;
5819;SDS011;2936;47.348;9.640;2024-02-21T01:12:11;2.50;;;2.35;;
5819;SDS011;2936;47.348;9.640;2024-02-21T01:14:40;2.10;;;2.10;;
5819;SDS011;2936;47.348;9.640;2024-02-21T01:17:08;4.00;;;3.72;;
5819;SDS011;2936;47.348;9.640;2024-02-21T01:19:36;3.30;;;3.20;;
5819;SDS011;2936;47.348;9.640;2024-02-21T01:22:04;4.03;;;3.72;;
5819;SDS011;2936;47.348;9.640;2024-02-21T01:24:31;5.03;;;4.57;;
5819;SDS011;2936;47.348;9.640;2024-02-21T01:26:59;5.05;;;4.65;;
5819;SDS011;2936;47.348;9.640;2024-02-21T01:29:27;11.70;;;5.80;;
5819;SDS011;2936;47.348;9.640;2024-02-21T01:31:56;4.80;;;4.43;;
5819;SDS011;2936;47.348;9.640;2024-02-21T01:34:23;5.50;;;4.47;;
5819;SDS011;2936;47.348;9.640;2024-02-21T01:36:51;4.80;;;4.45;;
5819;SDS011;2936;47.348;9.640;2024-02-21T01:39:19;4.50;;;4.30;;
5819;SDS011;2936;47.348;9.640;2024-02-21T01:41:46;4.10;;;3.78;;
5819;SDS011;2936;47.348;9.640;2024-02-21T01:44:14;4.60;;;4.20;;
5819;SDS011;2936;47.348;9.640;2024-02-21T01:46:42;4.10;;;3.80;;
5819;SDS011;2936;47.348;9.640;2024-02-21T01:49:11;4.97;;;4.68;;
5819;SDS011;2936;47.348;9.640;2024-02-21T01:51:38;4.82;;;4.45;;
5819;SDS011;2936;47.348;9.640;2024-02-21T01:54:06;9.48;;;6.60;;
5819;SDS011;2936;47.348;9.640;2024-02-21T01:56:34;5.05;;;4.50;;
5819;SDS011;2936;47.348;9.640;2024-02-21T01:59:02;17.10;;;5.35;;
5819;SDS011;2936;47.348;9.640;2024-02-21T02:01:29;4.93;;;4.60;;
5819;SDS011;2936;47.348;9.640;2024-02-21T02:03:57;5.50;;;5.00;;
5819;SDS011;2936;47.348;9.640;2024-02-21T02:06:27;5.38;;;4.63;;
5819;SDS011;2936;47.348;9.640;2024-02-21T02:08:55;6.88;;;4.50;;
5819;SDS011;2936;47.348;9.640;2024-02-21T02:11:24;4.30;;;4.10;;
5819;SDS011;2936;47.348;9.640;2024-02-21T02:13:52;4.88;;;4.32;;
5819;SDS011;2936;47.348;9.640;2024-02-21T02:16:19;4.38;;;4.00;;
5819;SDS011;2936;47.348;9.640;2024-02-21T02:18:47;3.53;;;3.33;;
5819;SDS011;2936;47.348;9.640;2024-02-21T02:21:22;7.95;;;4.35;;
5819;SDS011;2936;47.348;9.640;2024-02-21T02:23:52;4.68;;;3.85;;
5819;SDS011;2936;47.348;9.640;2024-02-21T02:26:20;7.30;;;5.10;;
5819;SDS011;2936;47.348;9.640;2024-02-21T02:28:48;4.00;;;3.70;;
5819;SDS011;2936;47.348;9.640;2024-02-21T02:31:16;5.00;;;4.50;;
5819;SDS011;2936;47.348;9.640;2024-02-21T02:33:43;4.47;;;4.10;;
5819;SDS011;2936;47.348;9.640;2024-02-21T02:36:12;4.65;;;4.35;;
5819;SDS011;2936;47.348;9.640;2024-02-21T02:38:40;4.78;;;4.32;;
5819;SDS011;2936;47.348;9.640;2024-02-21T02:41:09;4.45;;;3.47;;
5819;SDS011;2936;47.348;9.640;2024-02-21T02:43:36;2.47;;;2.38;;
5819;SDS011;2936;47.348;9.640;2024-02-21T02:46:04;2.60;;;2.40;;
5819;SDS011;2936;47.348;9.640;2024-02-21T02:48:32;1.90;;;1.90;;
5819;SDS011;2936;47.348;9.640;2024-02-21T02:50:59;2.15;;;2.05;;
5819;SDS011;2936;47.348;9.640;2024-02-21T02:53:27;1.75;;;1.75;;
5819;SDS011;2936;47.348;9.640;2024-02-21T02:55:55;2.10;;;2.00;;
5819;SDS011;2936;47.348;9.640;2024-02-21T02:58:24;1.63;;;1.63;;
5819;SDS011;2936;47.348;9.640;2024-02-21T03:00:52;1.90;;;1.90;;
5819;SDS011;2936;47.348;9.640;2024-02-21T03:03:20;2.10;;;2.00;;
5819;SDS011;2936;47.348;9.640;2024-02-21T03:05:47;1.77;;;1.77;;
5819;SDS011;2936;47.348;9.640;2024-02-21T03:08:15;1.80;;;1.70;;
5819;SDS011;2936;47.348;9.640;2024-02-21T03:10:43;2.67;;;1.90;;
5819;SDS011;2936;47.348;9.640;2024-02-21T03:13:11;1.90;;;1.90;;
5819;SDS011;2936;47.348;9.640;2024-02-21T03:15:40;2.20;;;2.05;;
5819;SDS011;2936;47.348;9.640;2024-02-21T03:18:08;1.73;;;1.73;;
5819;SDS011;2936;47.348;9.640;2024-02-21T03:20:36;2.22;;;2.10;;
5819;SDS011;2936;47.348;9.640;2024-02-21T03:23:03;1.77;;;1.77;;
5819;SDS011;2936;47.348;9.640;2024-02-21T03:25:31;2.08;;;1.98;;
5819;SDS011;2936;47.348;9.640;2024-02-21T03:27:59;2.25;;;2.05;;
5819;SDS011;2936;47.348;9.640;2024-02-21T03:30:27;1.80;;;1.80;;
5819;SDS011;2936;47.348;9.640;2024-02-21T03:32:56;1.90;;;1.90;;
5819;SDS011;2936;47.348;9.640;2024-02-21T03:35:23;1.80;;;1.80;;
5819;SDS011;2936;47.348;9.640;2024-02-21T03:37:52;1.90;;;1.80;;
5819;SDS011;2936;47.348;9.640;2024-02-21T03:40:19;1.90;;;1.80;;
5819;SDS011;2936;47.348;9.640;2024-02-21T03:42:47;1.80;;;1.80;;
5819;SDS011;2936;47.348;9.640;2024-02-21T03:45:15;1.80;;;1.80;;
5819;SDS011;2936;47.348;9.640;2024-02-21T03:47:43;1.85;;;1.85;;
5819;SDS011;2936;47.348;9.640;2024-02-21T03:50:12;2.15;;;2.05;;
5819;SDS011;2936;47.348;9.640;2024-02-21T03:52:40;1.88;;;1.88;;
5819;SDS011;2936;47.348;9.640;2024-02-21T03:55:08;2.00;;;1.90;;
5819;SDS011;2936;47.348;9.640;2024-02-21T03:57:35;1.90;;;1.80;;
5819;SDS011;2936;47.348;9.640;2024-02-21T04:00:04;4.63;;;1.90;;
5819;SDS011;2936;47.348;9.640;2024-02-21T04:02:36;2.20;;;2.10;;
5819;SDS011;2936;47.348;9.640;2024-02-21T04:05:04;2.08;;;1.98;;
5819;SDS011;2936;47.348;9.640;2024-02-21T04:07:38;1.80;;;1.80;;
5819;SDS011;2936;47.348;9.640;2024-02-21T04:10:06;2.08;;;2.00;;
5819;SDS011;2936;47.348;9.640;2024-02-21T04:12:33;1.80;;;1.70;;
5819;SDS011;2936;47.348;9.640;2024-02-21T04:15:01;1.90;;;1.90;;
5819;SDS011;2936;47.348;9.640;2024-02-21T04:17:28;2.00;;;1.90;;
5819;SDS011;2936;47.348;9.640;2024-02-21T04:20:02;1.80;;;1.80;;
5819;SDS011;2936;47.348;9.640;2024-02-21T04:22:32;1.70;;;1.70;;
5819;SDS011;2936;47.348;9.640;2024-02-21T04:25:02;1.80;;;1.80;;
5819;SDS011;2936;47.348;9.640;2024-02-21T04:27:30;2.17;;;2.00;;
5819;SDS011;2936;47.348;9.640;2024-02-21T04:29:58;1.73;;;1.73;;
5819;SDS011;2936;47.348;9.640;2024-02-21T04:32:26;1.90;;;1.80;;
5819;SDS011;2936;47.348;9.640;2024-02-21T04:34:54;1.70;;;1.70;;
5819;SDS011;2936;47.348;9.640;2024-02-21T04:37:21;1.55;;;1.55;;
5819;SDS011;2936;47.348;9.640;2024-02-21T04:39:49;1.83;;;1.83;;
5819;SDS011;2936;47.348;9.640;2024-02-21T04:42:19;2.10;;;2.00;;
5819;SDS011;2936;47.348;9.640;2024-02-21T04:44:46;2.10;;;2.00;;
5819;SDS011;2936;47.348;9.640;2024-02-21T04:47:14;2.15;;;2.05;;
5819;SDS011;2936;47.348;9.640;2024-02-21T04:49:41;1.92;;;1.90;;
5819;SDS011;2936;47.348;9.640;2024-02-21T04:52:09;1.70;;;1.70;;
5819;SDS011;2936;47.348;9.640;2024-02-21T04:54:36;1.70;;;1.70;;
5819;SDS011;2936;47.348;9.640;2024-02-21T04:57:04;2.08;;;1.98;;
5819;SDS011;2936;47.348;9.640;2024-02-21T04:59:34;1.85;;;1.85;;
5819;SDS011;2936;47.348;9.640;2024-02-21T05:02:02;1.90;;;1.90;;
5819;SDS011;2936;47.348;9.640;2024-02-21T05:04:30;1.88;;;1.88;;
5819;SDS011;2936;47.348;9.640;2024-02-21T05:06:57;1.80;;;1.80;;
5819;SDS011;2936;47.348;9.640;2024-02-21T05:09:27;0.70;;;0.65;;
5819;SDS011;2936;47.348;9.640;2024-02-21T05:11:55;5.32;;;2.42;;
5819;SDS011;2936;47.348;9.640;2024-02-21T05:14:24;1.90;;;1.80;;
5819;SDS011;2936;47.348;9.640;2024-02-21T05:16:53;2.20;;;2.10;;
5819;SDS011;2936;47.348;9.640;2024-02-21T05:19:21;2.28;;;2.17;;
5819;SDS011;2936;47.348;9.640;2024-02-21T05:21:49;1.85;;;1.85;;
5819;SDS011;2936;47.348;9.640;2024-02-21T05:24:16;2.72;;;2.53;;
5819;SDS011;2936;47.348;9.640;2024-02-21T05:26:43;3.58;;;1.90;;
5819;SDS011;2936;47.348;9.640;2024-02-21T05:29:11;1.95;;;1.95;;
5819;SDS011;2936;47.348;9.640;2024-02-21T05:34:29;2.03;;;1.92;;
5819;SDS011;2936;47.348;9.640;2024-02-21T05:36:56;2.20;;;2.10;;
5819;SDS011;2936;47.348;9.640;2024-02-21T05:39:25;2.30;;;2.20;;
5819;SDS011;2936;47.348;9.640;2024-02-21T05:41:54;2.20;;;2.10;;
5819;SDS011;2936;47.348;9.640;2024-02-21T05:44:22;1.80;;;1.80;;
5819;SDS011;2936;47.348;9.640;2024-02-21T05:46:49;1.83;;;1.83;;
5819;SDS011;2936;47.348;9.640;2024-02-21T05:49:17;1.98;;;1.92;;
5819;SDS011;2936;47.348;9.640;2024-02-21T05:51:47;1.80;;;1.80;;
5819;SDS011;2936;47.348;9.640;2024-02-21T05:54:14;2.00;;;1.90;;
5819;SDS011;2936;47.348;9.640;2024-02-21T05:56:43;1.80;;;1.80;;
5819;SDS011;2936;47.348;9.640;2024-02-21T05:59:12;2.10;;;2.00;;
5819;SDS011;2936;47.348;9.640;2024-02-21T06:01:40;1.80;;;1.70;;
5819;SDS011;2936;47.348;9.640;2024-02-21T06:04:07;1.90;;;1.90;;
5819;SDS011;2936;47.348;9.640;2024-02-21T06:06:35;1.95;;;1.95;;
5819;SDS011;2936;47.348;9.640;2024-02-21T06:09:04;2.00;;;1.90;;
5819;SDS011;2936;47.348;9.640;2024-02-21T06:11:32;4.50;;;2.10;;
5819;SDS011;2936;47.348;9.640;2024-02-21T06:14:02;1.70;;;1.70;;
5819;SDS011;2936;47.348;9.640;2024-02-21T06:16:30;1.90;;;1.80;;
5819;SDS011;2936;47.348;9.640;2024-02-21T06:18:58;2.10;;;1.90;;
5819;SDS011;2936;47.348;9.640;2024-02-21T06:21:28;1.90;;;1.90;;
5819;SDS011;2936;47.348;9.640;2024-02-21T06:23:56;2.65;;;2.22;;
5819;SDS011;2936;47.348;9.640;2024-02-21T06:26:26;2.30;;;2.20;;
5819;SDS011;2936;47.348;9.640;2024-02-21T06:28:53;1.90;;;1.80;;
5819;SDS011;2936;47.348;9.640;2024-02-21T06:31:21;1.80;;;1.80;;
5819;SDS011;2936;47.348;9.640;2024-02-21T06:33:48;2.15;;;2.05;;
5819;SDS011;2936;47.348;9.640;2024-02-21T06:36:16;2.20;;;2.10;;
5819;SDS011;2936;47.348;9.640;2024-02-21T06:38:44;2.17;;;2.08;;
5819;SDS011;2936;47.348;9.640;2024-02-21T06:41:14;2.58;;;2.40;;
5819;SDS011;2936;47.348;9.640;2024-02-21T06:43:45;2.50;;;2.40;;
5819;SDS011;2936;47.348;9.640;2024-02-21T06:46:22;2.25;;;2.15;;
5819;SDS011;2936;47.348;9.640;2024-02-21T06:48:50;2.42;;;2.33;;
5819;SDS011;2936;47.348;9.640;2024-02-21T06:51:17;2.15;;;2.05;;
5819;SDS011;2936;47.348;9.640;2024-02-21T06:53:45;2.08;;;1.98;;
5819;SDS011;2936;47.348;9.640;2024-02-21T06:56:13;1.70;;;1.70;;
5819;SDS011;2936;47.348;9.640;2024-02-21T06:58:40;2.00;;;2.00;;
5819;SDS011;2936;47.348;9.640;2024-02-21T07:01:09;2.50;;;2.25;;
5819;SDS011;2936;47.348;9.640;2024-02-21T07:03:37;2.63;;;2.53;;
5819;SDS011;2936;47.348;9.640;2024-02-21T07:06:05;2.13;;;2.03;;
5819;SDS011;2936;47.348;9.640;2024-02-21T07:08:33;2.28;;;2.10;;
5819;SDS011;2936;47.348;9.640;2024-02-21T07:11:00;2.20;;;2.10;;
5819;SDS011;2936;47.348;9.640;2024-02-21T07:13:28;2.00;;;1.90;;
5819;SDS011;2936;47.348;9.640;2024-02-21T07:15:55;2.17;;;2.10;;
5819;SDS011;2936;47.348;9.640;2024-02-21T07:18:24;2.30;;;2.20;;
5819;SDS011;2936;47.348;9.640;2024-02-21T07:20:52;1.98;;;1.88;;
5819;SDS011;2936;47.348;9.640;2024-02-21T07:23:20;2.10;;;2.00;;
5819;SDS011;2936;47.348;9.640;2024-02-21T07:25:47;2.00;;;1.90;;
5819;SDS011;2936;47.348;9.640;2024-02-21T07:28:15;2.33;;;2.22;;
5819;SDS011;2936;47.348;9.640;2024-02-21T07:30:43;2.20;;;2.10;;
5819;SDS011;2936;47.348;9.640;2024-02-21T07:33:10;2.40;;;2.28;;
5819;SDS011;2936;47.348;9.640;2024-02-21T07:35:40;1.80;;;1.80;;
5819;SDS011;2936;47.348;9.640;2024-02-21T07:38:10;1.80;;;1.80;;
5819;SDS011;2936;47.348;9.640;2024-02-21T07:40:37;4.95;;;2.33;;
5819;SDS011;2936;47.348;9.640;2024-02-21T07:43:05;2.60;;;2.15;;
5819;SDS011;2936;47.348;9.640;2024-02-21T07:45:33;2.42;;;2.33;;
5819;SDS011;2936;47.348;9.640;2024-02-21T07:48:01;2.70;;;2.50;;
5819;SDS011;2936;47.348;9.640;2024-02-21T07:50:28;2.42;;;2.30;;
5819;SDS011;2936;47.348;9.640;2024-02-21T07:52:57;8.30;;;3.13;;
5819;SDS011;2936;47.348;9.640;2024-02-21T07:55:25;2.85;;;2.75;;
5819;SDS011;2936;47.348;9.640;2024-02-21T07:57:53;2.30;;;2.20;;
5819;SDS011;2936;47.348;9.640;2024-02-21T08:00:21;14.50;;;2.25;;
5819;SDS011;2936;47.348;9.640;2024-02-21T08:02:48;2.35;;;2.00;;
5819;SDS011;2936;47.348;9.640;2024-02-21T08:05:16;2.40;;;2.30;;
5819;SDS011;2936;47.348;9.640;2024-02-21T08:07:43;4.63;;;2.78;;
5819;SDS011;2936;47.348;9.640;2024-02-21T08:10:12;2.63;;;2.50;;
5819;SDS011;2936;47.348;9.640;2024-02-21T08:12:40;2.22;;;2.10;;
5819;SDS011;2936;47.348;9.640;2024-02-21T08:15:08;1.90;;;1.80;;
5819;SDS011;2936;47.348;9.640;2024-02-21T08:17:37;2.22;;;2.13;;
5819;SDS011;2936;47.348;9.640;2024-02-21T08:20:05;2.40;;;2.30;;
5819;SDS011;2936;47.348;9.640;2024-02-21T08:22:33;2.40;;;2.30;;
5819;SDS011;2936;47.348;9.640;2024-02-21T08:25:01;2.10;;;2.10;;
5819;SDS011;2936;47.348;9.640;2024-02-21T08:27:32;1.80;;;1.80;;
5819;SDS011;2936;47.348;9.640;2024-02-21T08:29:59;1.90;;;1.90;;
5819;SDS011;2936;47.348;9.640;2024-02-21T08:32:28;2.78;;;2.47;;
5819;SDS011;2936;47.348;9.640;2024-02-21T08:34:56;2.45;;;2.35;;
5819;SDS011;2936;47.348;9.640;2024-02-21T08:37:24;2.45;;;2.35;;
5819;SDS011;2936;47.348;9.640;2024-02-21T08:39:51;2.22;;;2.13;;
5819;SDS011;2936;47.348;9.640;2024-02-21T08:42:19;2.15;;;2.05;;
5819;SDS011;2936;47.348;9.640;2024-02-21T08:44:48;2.30;;;2.20;;
5819;SDS011;2936;47.348;9.640;2024-02-21T08:47:15;2.25;;;2.15;;
5819;SDS011;2936;47.348;9.640;2024-02-21T08:49:43;2.30;;;2.20;;
5819;SDS011;2936;47.348;9.640;2024-02-21T08:52:11;2.33;;;2.22;;
5819;SDS011;2936;47.348;9.640;2024-02-21T08:54:39;1.80;;;1.80;;
5819;SDS011;2936;47.348;9.640;2024-02-21T08:57:06;2.10;;;2.00;;
5819;SDS011;2936;47.348;9.640;2024-02-21T08:59:34;2.47;;;2.30;;
5819;SDS011;2936;47.348;9.640;2024-02-21T09:02:03;1.80;;;1.80;;
5819;SDS011;2936;47.348;9.640;2024-02-21T09:04:32;2.70;;;2.50;;
5819;SDS011;2936;47.348;9.640;2024-02-21T09:06:59;2.22;;;2.13;;
5819;SDS011;2936;47.348;9.640;2024-02-21T09:09:28;2.30;;;2.20;;
5819;SDS011;2936;47.348;9.640;2024-02-21T09:11:55;1.90;;;1.80;;
5819;SDS011;2936;47.348;9.640;2024-02-21T09:14:22;1.80;;;1.80;;
5819;SDS011;2936;47.348;9.640;2024-02-21T09:16:50;1.80;;;1.70;;
5819;SDS011;2936;47.348;9.640;2024-02-21T09:19:19;1.90;;;1.80;;
5819;SDS011;2936;47.348;9.640;2024-02-21T09:21:46;1.90;;;1.90;;
5819;SDS011;2936;47.348;9.640;2024-02-21T09:24:14;1.92;;;1.83;;
5819;SDS011;2936;47.348;9.640;2024-02-21T09:26:42;2.13;;;2.03;;
5819;SDS011;2936;47.348;9.640;2024-02-21T09:29:09;2.28;;;2.17;;
5819;SDS011;2936;47.348;9.640;2024-02-21T09:31:36;2.03;;;2.03;;
5819;SDS011;2936;47.348;9.640;2024-02-21T09:34:05;1.83;;;1.83;;
5819;SDS011;2936;47.348;9.640;2024-02-21T09:36:34;1.95;;;1.92;;
5819;SDS011;2936;47.348;9.640;2024-02-21T09:39:01;15.98;;;1.95;;
5819;SDS011;2936;47.348;9.640;2024-02-21T09:41:29;1.88;;;1.88;;
5819;SDS011;2936;47.348;9.640;2024-02-21T09:43:57;2.05;;;2.03;;
5819;SDS011;2936;47.348;9.640;2024-02-21T09:46:28;2.28;;;2.13;;
5819;SDS011;2936;47.348;9.640;2024-02-21T09:49:04;2.20;;;2.10;;
5819;SDS011;2936;47.348;9.640;2024-02-21T09:51:35;2.10;;;2.10;;
5819;SDS011;2936;47.348;9.640;2024-02-21T09:54:04;1.88;;;1.88;;
5819;SDS011;2936;47.348;9.640;2024-02-21T09:56:32;2.50;;;2.38;;
5819;SDS011;2936;47.348;9.640;2024-02-21T09:59:00;2.92;;;2.78;;
5819;SDS011;2936;47.348;9.640;2024-02-21T10:01:30;2.40;;;2.30;;
5819;SDS011;2936;47.348;9.640;2024-02-21T10:03:59;2.92;;;2.72;;
5819;SDS011;2936;47.348;9.640;2024-02-21T10:06:28;3.03;;;2.92;;
5819;SDS011;2936;47.348;9.640;2024-02-21T10:08:57;4.50;;;2.42;;
5819;SDS011;2936;47.348;9.640;2024-02-21T10:11:25;2.08;;;1.98;;
5819;SDS011;2936;47.348;9.640;2024-02-21T10:14:02;2.05;;;2.00;;
5819;SDS011;2936;47.348;9.640;2024-02-21T10:16:30;2.10;;;2.00;;
5819;SDS011;2936;47.348;9.640;2024-02-21T10:18:58;2.20;;;2.10;;
5819;SDS011;2936;47.348;9.640;2024-02-21T10:21:32;2.78;;;2.58;;
5819;SDS011;2936;47.348;9.640;2024-02-21T10:24:02;5.22;;;2.60;;
5819;SDS011;2936;47.348;9.640;2024-02-21T10:26:29;2.80;;;2.70;;
5819;SDS011;2936;47.348;9.640;2024-02-21T10:28:57;2.88;;;2.78;;
5819;SDS011;2936;47.348;9.640;2024-02-21T10:31:25;2.58;;;2.47;;
5819;SDS011;2936;47.348;9.640;2024-02-21T10:33:56;2.25;;;2.15;;
5819;SDS011;2936;47.348;9.640;2024-02-21T10:36:24;6.38;;;2.20;;
5819;SDS011;2936;47.348;9.640;2024-02-21T10:38:52;3.45;;;3.22;;
5819;SDS011;2936;47.348;9.640;2024-02-21T10:41:21;2.92;;;2.72;;
5819;SDS011;2936;47.348;9.640;2024-02-21T10:43:49;2.20;;;2.10;;
5819;SDS011;2936;47.348;9.640;2024-02-21T10:46:19;6.07;;;2.53;;
5819;SDS011;2936;47.348;9.640;2024-02-21T10:48:47;3.28;;;3.03;;
5819;SDS011;2936;47.348;9.640;2024-02-21T10:51:16;2.30;;;2.20;;
5819;SDS011;2936;47.348;9.640;2024-02-21T10:53:45;2.17;;;2.08;;
5819;SDS011;2936;47.348;9.640;2024-02-21T10:56:19;1.70;;;1.70;;
5819;SDS011;2936;47.348;9.640;2024-02-21T10:58:51;1.80;;;1.80;;
5819;SDS011;2936;47.348;9.640;2024-02-21T11:01:20;1.60;;;1.60;;
5819;SDS011;2936;47.348;9.640;2024-02-21T11:03:48;1.80;;;1.80;;
5819;SDS011;2936;47.348;9.640;2024-02-21T11:06:17;2.33;;;2.22;;
5819;SDS011;2936;47.348;9.640;2024-02-21T11:08:45;2.47;;;2.38;;
5819;SDS011;2936;47.348;9.640;2024-02-21T11:11:12;2.40;;;2.30;;
5819;SDS011;2936;47.348;9.640;2024-02-21T11:13:45;2.55;;;2.10;;
5819;SDS011;2936;47.348;9.640;2024-02-21T11:16:22;2.08;;;2.00;;
5819;SDS011;2936;47.348;9.640;2024-02-21T11:18:50;9.40;;;2.28;;
5819;SDS011;2936;47.348;9.640;2024-02-21T11:21:17;2.03;;;1.92;;
5819;SDS011;2936;47.348;9.640;2024-02-21T11:23:54;1.90;;;1.90;;
5819;SDS011;2936;47.348;9.640;2024-02-21T11:26:22;1.95;;;1.95;;
5819;SDS011;2936;47.348;9.640;2024-02-21T11:28:56;2.45;;;2.28;;
5819;SDS011;2936;47.348;9.640;2024-02-21T11:31:26;2.10;;;2.08;;
5819;SDS011;2936;47.348;9.640;2024-02-21T11:33:54;1.98;;;1.92;;
5819;SDS011;2936;47.348;9.640;2024-02-21T11:36:25;1.85;;;1.80;;
5819;SDS011;2936;47.348;9.640;2024-02-21T11:38:53;9.32;;;2.42;;
5819;SDS011;2936;47.348;9.640;2024-02-21T11:41:21;13.48;;;2.38;;
5819;SDS011;2936;47.348;9.640;2024-02-21T11:43:48;2.65;;;2.45;;
5819;SDS011;2936;47.348;9.640;2024-02-21T11:46:17;2.50;;;2.38;;
5819;SDS011;2936;47.348;9.640;2024-02-21T11:48:47;2.70;;;2.60;;
5819;SDS011;2936;47.348;9.640;2024-02-21T11:51:24;2.80;;;2.70;;
5819;SDS011;2936;47.348;9.640;2024-02-21T11:53:52;2.78;;;2.67;;
5819;SDS011;2936;47.348;9.640;2024-02-21T11:56:20;2.13;;;2.05;;
5819;SDS011;2936;47.348;9.640;2024-02-21T11:58:48;2.80;;;2.70;;
5819;SDS011;2936;47.348;9.640;2024-02-21T12:01:15;6.15;;;2.53;;
5819;SDS011;2936;47.348;9.640;2024-02-21T12:03:43;3.35;;;3.05;;
5819;SDS011;2936;47.348;9.640;2024-02-21T12:06:17;2.53;;;2.42;;
5819;SDS011;2936;47.348;9.640;2024-02-21T12:08:46;3.22;;;2.75;;
5819;SDS011;2936;47.348;9.640;2024-02-21T12:11:21;2.10;;;2.00;;
5819;SDS011;2936;47.348;9.640;2024-02-21T12:13:58;2.40;;;2.30;;
5819;SDS011;2936;47.348;9.640;2024-02-21T12:16:27;2.20;;;2.10;;
5819;SDS011;2936;47.348;9.640;2024-02-21T12:18:55;2.50;;;2.40;;
5819;SDS011;2936;47.348;9.640;2024-02-21T12:21:29;2.55;;;2.35;;
5819;SDS011;2936;47.348;9.640;2024-02-21T12:23:58;4.95;;;2.90;;
5819;SDS011;2936;47.348;9.640;2024-02-21T12:26:25;2.95;;;2.78;;
5819;SDS011;2936;47.348;9.640;2024-02-21T12:28:53;3.20;;;3.00;;
5819;SDS011;2936;47.348;9.640;2024-02-21T12:31:21;2.65;;;2.55;;
5819;SDS011;2936;47.348;9.640;2024-02-21T12:33:49;2.55;;;2.35;;
5819;SDS011;2936;47.348;9.640;2024-02-21T12:36:18;8.52;;;3.22;;
5819;SDS011;2936;47.348;9.640;2024-02-21T12:38:47;3.35;;;2.97;;
5819;SDS011;2936;47.348;9.640;2024-02-21T12:41:15;3.20;;;2.85;;
5819;SDS011;2936;47.348;9.640;2024-02-21T12:43:43;3.05;;;2.95;;
5819;SDS011;2936;47.348;9.640;2024-02-21T12:46:11;2.80;;;2.60;;
5819;SDS011;2936;47.348;9.640;2024-02-21T12:48:39;2.92;;;2.83;;
5819;SDS011;2936;47.348;9.640;2024-02-21T12:51:06;3.60;;;2.67;;
5819;SDS011;2936;47.348;9.640;2024-02-21T12:53:34;2.75;;;2.55;;
5819;SDS011;2936;47.348;9.640;2024-02-21T12:56:04;2.90;;;2.70;;
5819;SDS011;2936;47.348;9.640;2024-02-21T12:58:33;2.97;;;2.88;;
5819;SDS011;2936;47.348;9.640;2024-02-21T13:01:00;3.03;;;2.90;;
5819;SDS011;2936;47.348;9.640;2024-02-21T13:03:28;3.22;;;3.05;;
5819;SDS011;2936;47.348;9.640;2024-02-21T13:05:56;2.53;;;2.42;;
5819;SDS011;2936;47.348;9.640;2024-02-21T13:08:24;2.95;;;2.85;;
5819;SDS011;2936;47.348;9.640;2024-02-21T13:10:52;2.95;;;2.58;;
5819;SDS011;2936;47.348;9.640;2024-02-21T13:13:21;2.65;;;2.45;;
5819;SDS011;2936;47.348;9.640;2024-02-21T13:15:48;3.67;;;2.70;;
5819;SDS011;2936;47.348;9.640;2024-02-21T13:18:16;2.45;;;2.35;;
5819;SDS011;2936;47.348;9.640;2024-02-21T13:20:45;7.90;;;2.53;;
5819;SDS011;2936;47.348;9.640;2024-02-21T13:23:12;2.70;;;2.60;;
5819;SDS011;2936;47.348;9.640;2024-02-21T13:25:40;3.47;;;3.28;;
5819;SDS011;2936;47.348;9.640;2024-02-21T13:28:09;3.58;;;3.28;;
5819;SDS011;2936;47.348;9.640;2024-02-21T13:30:38;2.25;;;2.15;;
5819;SDS011;2936;47.348;9.640;2024-02-21T13:33:06;2.70;;;2.58;;
5819;SDS011;2936;47.348;9.640;2024-02-21T13:35:35;2.67;;;2.58;;
5819;SDS011;2936;47.348;9.640;2024-02-21T13:38:04;2.38;;;2.28;;
5819;SDS011;2936;47.348;9.640;2024-02-21T13:40:31;3.30;;;2.85;;
5819;SDS011;2936;47.348;9.640;2024-02-21T13:42:59;2.50;;;2.40;;
5819;SDS011;2936;47.348;9.640;2024-02-21T13:45:27;2.80;;;2.70;;
5819;SDS011;2936;47.348;9.640;2024-02-21T13:47:57;3.17;;;2.95;;
5819;SDS011;2936;47.348;9.640;2024-02-21T13:50:27;5.70;;;3.67;;
5819;SDS011;2936;47.348;9.640;2024-02-21T13:52:56;4.35;;;4.05;;
5819;SDS011;2936;47.348;9.640;2024-02-21T13:55:24;3.33;;;3.13;;
5819;SDS011;2936;47.348;9.640;2024-02-21T13:57:52;3.17;;;3.03;;
5819;SDS011;2936;47.348;9.640;2024-02-21T14:00:20;3.20;;;2.95;;
5819;SDS011;2936;47.348;9.640;2024-02-21T14:02:48;3.28;;;3.10;;
5819;SDS011;2936;47.348;9.640;2024-02-21T14:05:17;2.78;;;2.67;;
5819;SDS011;2936;47.348;9.640;2024-02-21T14:07:45;3.35;;;3.05;;
5819;SDS011;2936;47.348;9.640;2024-02-21T14:10:13;2.72;;;2.63;;
5819;SDS011;2936;47.348;9.640;2024-02-21T14:12:40;3.03;;;2.92;;
5819;SDS011;2936;47.348;9.640;2024-02-21T14:15:09;2.67;;;2.47;;
5819;SDS011;2936;47.348;9.640;2024-02-21T14:17:36;5.20;;;3.08;;
5819;SDS011;2936;47.348;9.640;2024-02-21T14:20:05;2.22;;;2.10;;
5819;SDS011;2936;47.348;9.640;2024-02-21T14:22:34;3.33;;;3.03;;
5819;SDS011;2936;47.348;9.640;2024-02-21T14:25:03;2.30;;;2.20;;
5819;SDS011;2936;47.348;9.640;2024-02-21T14:27:31;2.55;;;2.40;;
5819;SDS011;2936;47.348;9.640;2024-02-21T14:29:59;6.25;;;3.30;;
5819;SDS011;2936;47.348;9.640;2024-02-21T14:32:27;2.58;;;2.47;;
5819;SDS011;2936;47.348;9.640;2024-02-21T14:34:55;3.58;;;2.42;;
5819;SDS011;2936;47.348;9.640;2024-02-21T14:37:23;2.80;;;2.70;;
5819;SDS011;2936;47.348;9.640;2024-02-21T14:39:56;2.83;;;2.67;;
5819;SDS011;2936;47.348;9.640;2024-02-21T14:42:27;3.10;;;2.90;;
5819;SDS011;2936;47.348;9.640;2024-02-21T14:44:55;2.67;;;2.58;;
5819;SDS011;2936;47.348;9.640;2024-02-21T14:47:29;2.40;;;2.30;;
5819;SDS011;2936;47.348;9.640;2024-02-21T14:49:57;2.30;;;2.20;;
5819;SDS011;2936;47.348;9.640;2024-02-21T14:52:24;2.60;;;2.47;;
5819;SDS011;2936;47.348;9.640;2024-02-21T14:54:52;2.85;;;2.75;;
5819;SDS011;2936;47.348;9.640;2024-02-21T14:57:22;2.38;;;2.28;;
5819;SDS011;2936;47.348;9.640;2024-02-21T14:59:50;3.85;;;3.55;;
5819;SDS011;2936;47.348;9.640;2024-02-21T15:02:21;3.20;;;2.95;;
5819;SDS011;2936;47.348;9.640;2024-02-21T15:04:49;2.53;;;2.42;;
5819;SDS011;2936;47.348;9.640;2024-02-21T15:07:17;3.13;;;2.92;;
5819;SDS011;2936;47.348;9.640;2024-02-21T15:09:45;2.75;;;2.65;;
5819;SDS011;2936;47.348;9.640;2024-02-21T15:12:14;2.92;;;2.83;;
5819;SDS011;2936;47.348;9.640;2024-02-21T15:14:44;3.03;;;2.90;;
5819;SDS011;2936;47.348;9.640;2024-02-21T15:17:14;3.20;;;3.00;;
5819;SDS011;2936;47.348;9.640;2024-02-21T15:19:43;2.85;;;2.70;;
5819;SDS011;2936;47.348;9.640;2024-02-21T15:22:11;3.42;;;3.20;;
5819;SDS011;2936;47.348;9.640;2024-02-21T15:24:38;2.80;;;2.70;;